createdAt,value
2023-02-04T00:00:04.554Z,1007.48
2023-02-04T00:01:04.533Z,1007.49
2023-02-04T00:02:04.501Z,1007.52
2023-02-04T00:03:04.512Z,1007.47
2023-02-04T00:04:04.458Z,1007.48
2023-02-04T00:05:04.439Z,1007.49
2023-02-04T00:06:04.447Z,1007.50
2023-02-04T00:07:04.383Z,1007.54
2023-02-04T00:08:04.468Z,1007.57
2023-02-04T00:09:04.333Z,1007.56
2023-02-04T00:10:04.304Z,1007.58
2023-02-04T00:11:04.293Z,1007.57
2023-02-04T00:12:04.254Z,1007.59
2023-02-04T00:13:04.335Z,1007.60
2023-02-04T00:14:04.208Z,1007.62
2023-02-04T00:15:04.181Z,1007.59
2023-02-04T00:16:04.257Z,1007.58
2023-02-04T00:17:04.162Z,1007.62
2023-02-04T00:18:04.112Z,1007.64
2023-02-04T00:19:04.081Z,1007.66
2023-02-04T00:20:04.072Z,1007.64
2023-02-04T00:21:04.034Z,1007.66
2023-02-04T00:22:04.031Z,1007.64
2023-02-04T00:23:03.985Z,1007.64
2023-02-04T00:24:03.963Z,1007.67
2023-02-04T00:25:03.931Z,1007.71
2023-02-04T00:26:03.917Z,1007.69
2023-02-04T00:27:03.907Z,1007.72
2023-02-04T00:28:03.917Z,1007.76
2023-02-04T00:29:03.837Z,1007.67
2023-02-04T00:30:03.808Z,1007.71
2023-02-04T00:31:03.825Z,1007.61
2023-02-04T00:32:03.818Z,1007.62
2023-02-04T00:33:03.836Z,1007.66
2023-02-04T00:34:03.729Z,1007.69
2023-02-04T00:35:03.685Z,1007.70
2023-02-04T00:36:03.654Z,1007.74
2023-02-04T00:37:03.632Z,1007.78
2023-02-04T00:38:03.608Z,1007.77
2023-02-04T00:39:03.588Z,1007.82
2023-02-04T00:40:03.575Z,1007.74
2023-02-04T00:41:03.572Z,1007.75
2023-02-04T00:42:03.506Z,1007.79
2023-02-04T00:43:03.489Z,1007.75
2023-02-04T00:44:03.456Z,1007.78
2023-02-04T00:45:03.437Z,1007.79
2023-02-04T00:46:03.456Z,1007.82
2023-02-04T00:47:03.392Z,1007.78
2023-02-04T00:48:03.363Z,1007.81
2023-02-04T00:49:03.329Z,1007.84
2023-02-04T00:50:03.315Z,1007.85
2023-02-04T00:51:03.357Z,1007.89
2023-02-04T00:52:03.274Z,1007.88
2023-02-04T00:53:03.238Z,1007.90
2023-02-04T00:54:03.222Z,1007.90
2023-02-04T00:55:03.180Z,1007.93
2023-02-04T00:56:03.162Z,1007.97
2023-02-04T00:57:03.128Z,1007.98
2023-02-04T00:58:03.117Z,1007.99
2023-02-04T00:59:03.103Z,1007.97
2023-02-04T01:00:03.059Z,1007.95
2023-02-04T01:01:03.071Z,1007.92
2023-02-04T01:02:03.010Z,1007.90
2023-02-04T01:03:03.015Z,1007.90
2023-02-04T01:04:02.968Z,1007.92
2023-02-04T01:05:02.946Z,1007.94
2023-02-04T01:06:02.916Z,1008.00
2023-02-04T01:07:02.916Z,1007.97
2023-02-04T01:08:02.879Z,1007.99
2023-02-04T01:09:02.830Z,1007.98
2023-02-04T01:10:02.870Z,1008.04
2023-02-04T01:11:02.808Z,1008.00
2023-02-04T01:12:02.768Z,1008.03
2023-02-04T01:13:02.753Z,1008.01
2023-02-04T01:14:02.719Z,1008.02
2023-02-04T01:15:02.726Z,1008.03
2023-02-04T01:16:02.699Z,1008.09
2023-02-04T01:17:02.640Z,1008.08
2023-02-04T01:18:02.657Z,1008.13
2023-02-04T01:19:02.593Z,1008.18
2023-02-04T01:20:02.578Z,1008.18
2023-02-04T01:21:02.548Z,1008.17
2023-02-04T01:22:02.552Z,1008.17
2023-02-04T01:23:02.494Z,1008.17
2023-02-04T01:24:02.469Z,1008.18
2023-02-04T01:25:02.478Z,1008.20
2023-02-04T01:26:02.426Z,1008.13
2023-02-04T01:27:02.388Z,1008.12
2023-02-04T01:28:02.417Z,1008.14
2023-02-04T01:29:02.343Z,1008.15
2023-02-04T01:30:02.330Z,1008.13
2023-02-04T01:31:02.302Z,1008.13
2023-02-04T01:32:02.351Z,1008.15
2023-02-04T01:33:02.251Z,1008.15
2023-02-04T01:34:02.228Z,1008.14
2023-02-04T01:35:02.197Z,1008.17
2023-02-04T01:36:02.175Z,1008.19
2023-02-04T01:37:02.152Z,1008.17
2023-02-04T01:38:02.127Z,1008.20
2023-02-04T01:39:02.090Z,1008.25
2023-02-04T01:40:02.114Z,1008.28
2023-02-04T01:41:02.045Z,1008.27
2023-02-04T01:42:02.024Z,1008.28
2023-02-04T01:43:02.020Z,1008.33
2023-02-04T01:44:01.983Z,1008.40
2023-02-04T01:45:01.998Z,1008.37
2023-02-04T01:46:01.997Z,1008.35
2023-02-04T01:47:01.892Z,1008.39
2023-02-04T01:48:01.933Z,1008.33
2023-02-04T01:49:01.852Z,1008.29
2023-02-04T01:50:01.823Z,1008.28
2023-02-04T01:51:01.801Z,1008.28
2023-02-04T01:52:01.790Z,1008.29
2023-02-04T01:53:01.759Z,1008.31
2023-02-04T01:54:01.755Z,1008.27
2023-02-04T01:55:01.706Z,1008.22
2023-02-04T01:56:01.702Z,1008.24
2023-02-04T01:57:01.650Z,1008.25
2023-02-04T01:58:01.622Z,1008.28
2023-02-04T01:59:01.597Z,1008.33
2023-02-04T02:00:01.607Z,1008.35
2023-02-04T02:01:01.580Z,1008.35
2023-02-04T02:02:01.610Z,1008.30
2023-02-04T02:03:01.497Z,1008.31
2023-02-04T02:04:01.492Z,1008.31
2023-02-04T02:05:01.465Z,1008.30
2023-02-04T02:06:01.422Z,1008.34
2023-02-04T02:07:01.397Z,1008.40
2023-02-04T02:08:01.371Z,1008.43
2023-02-04T02:09:01.353Z,1008.40
2023-02-04T02:10:01.325Z,1008.42
2023-02-04T02:11:01.309Z,1008.39
2023-02-04T02:12:01.269Z,1008.41
2023-02-04T02:13:01.281Z,1008.43
2023-02-04T02:14:01.225Z,1008.43
2023-02-04T02:15:01.190Z,1008.40
2023-02-04T02:16:01.178Z,1008.49
2023-02-04T02:17:01.213Z,1008.44
2023-02-04T02:18:01.124Z,1008.47
2023-02-04T02:19:01.093Z,1008.50
2023-02-04T02:20:01.076Z,1008.51
2023-02-04T02:21:01.066Z,1008.54
2023-02-04T02:22:01.020Z,1008.58
2023-02-04T02:23:01.028Z,1008.59
2023-02-04T02:24:00.971Z,1008.59
2023-02-04T02:25:00.966Z,1008.60
2023-02-04T02:26:00.926Z,1008.59
2023-02-04T02:27:00.892Z,1008.62
2023-02-04T02:28:00.929Z,1008.61
2023-02-04T02:29:00.842Z,1008.60
2023-02-04T02:30:00.850Z,1008.59
2023-02-04T02:31:01.007Z,1008.57
2023-02-04T02:32:00.786Z,1008.62
2023-02-04T02:33:00.752Z,1008.60
2023-02-04T02:34:00.719Z,1008.62
2023-02-04T02:35:00.705Z,1008.63
2023-02-04T02:36:00.675Z,1008.60
2023-02-04T02:37:00.650Z,1008.63
2023-02-04T02:38:00.642Z,1008.61
2023-02-04T02:39:00.587Z,1008.60
2023-02-04T02:40:00.595Z,1008.61
2023-02-04T02:41:00.550Z,1008.65
2023-02-04T02:42:00.529Z,1008.64
2023-02-04T02:43:00.493Z,1008.68
2023-02-04T02:44:00.470Z,1008.64
2023-02-04T02:45:00.461Z,1008.61
2023-02-04T02:46:00.458Z,1008.60
2023-02-04T02:47:00.389Z,1008.60
2023-02-04T02:48:00.370Z,1008.59
2023-02-04T02:49:00.359Z,1008.62
2023-02-04T02:50:00.346Z,1008.62
2023-02-04T02:51:00.282Z,1008.66
2023-02-04T02:52:00.279Z,1008.61
2023-02-04T02:53:00.237Z,1008.62
2023-02-04T02:54:00.220Z,1008.61
2023-02-04T02:55:00.200Z,1008.69
2023-02-04T02:56:00.163Z,1008.69
2023-02-04T02:57:00.135Z,1008.67
2023-02-04T02:58:00.112Z,1008.70
2023-02-04T02:59:00.104Z,1008.71
2023-02-04T03:00:00.075Z,1008.70
2023-02-04T03:01:00.758Z,1008.75
2023-02-04T03:02:00.019Z,1008.73
2023-02-04T03:02:59.983Z,1008.75
2023-02-04T03:03:59.960Z,1008.74
2023-02-04T03:04:59.930Z,1008.74
2023-02-04T03:05:59.914Z,1008.78
2023-02-04T03:06:59.905Z,1008.80
2023-02-04T03:07:59.861Z,1008.78
2023-02-04T03:08:59.833Z,1008.77
2023-02-04T03:09:59.807Z,1008.79
2023-02-04T03:10:59.780Z,1008.74
2023-02-04T03:11:59.767Z,1008.83
2023-02-04T03:12:59.732Z,1008.81
2023-02-04T03:13:59.707Z,1008.80
2023-02-04T03:14:59.697Z,1008.85
2023-02-04T03:15:59.761Z,1008.85
2023-02-04T03:16:59.623Z,1008.85
2023-02-04T03:17:59.606Z,1008.91
2023-02-04T03:18:59.591Z,1008.93
2023-02-04T03:19:59.564Z,1008.97
2023-02-04T03:20:59.526Z,1008.98
2023-02-04T03:21:59.504Z,1008.96
2023-02-04T03:22:59.476Z,1008.97
2023-02-04T03:23:59.455Z,1008.99
2023-02-04T03:24:59.426Z,1009.00
2023-02-04T03:25:59.407Z,1008.98
2023-02-04T03:26:59.388Z,1008.98
2023-02-04T03:27:59.414Z,1008.99
2023-02-04T03:28:59.409Z,1008.99
2023-02-04T03:29:59.304Z,1009.03
2023-02-04T03:30:59.367Z,1009.03
2023-02-04T03:31:59.359Z,1009.09
2023-02-04T03:32:59.221Z,1009.08
2023-02-04T03:33:59.204Z,1009.06
2023-02-04T03:34:59.180Z,1009.09
2023-02-04T03:35:59.156Z,1009.06
2023-02-04T03:36:59.121Z,1009.10
2023-02-04T03:37:59.120Z,1009.10
2023-02-04T03:38:59.070Z,1009.13
2023-02-04T03:39:59.051Z,1009.12
2023-02-04T03:40:59.021Z,1009.17
2023-02-04T03:41:59.003Z,1009.14
2023-02-04T03:42:58.978Z,1009.21
2023-02-04T03:43:58.952Z,1009.22
2023-02-04T03:44:58.927Z,1009.23
2023-02-04T03:45:58.934Z,1009.28
2023-02-04T03:46:58.869Z,1009.29
2023-02-04T03:47:58.849Z,1009.32
2023-02-04T03:48:58.862Z,1009.33
2023-02-04T03:49:58.795Z,1009.36
2023-02-04T03:50:58.787Z,1009.31
2023-02-04T03:51:58.751Z,1009.38
2023-02-04T03:52:58.794Z,1009.41
2023-02-04T03:53:58.699Z,1009.42
2023-02-04T03:54:58.666Z,1009.43
2023-02-04T03:55:58.650Z,1009.41
2023-02-04T03:56:58.627Z,1009.44
2023-02-04T03:57:58.605Z,1009.45
2023-02-04T03:58:58.568Z,1009.45
2023-02-04T03:59:58.560Z,1009.51
2023-02-04T04:00:58.540Z,1009.46
2023-02-04T04:01:58.549Z,1009.51
2023-02-04T04:02:58.542Z,1009.48
2023-02-04T04:03:58.440Z,1009.54
2023-02-04T04:04:58.430Z,1009.58
2023-02-04T04:05:58.389Z,1009.60
2023-02-04T04:06:58.360Z,1009.61
2023-02-04T04:07:58.343Z,1009.64
2023-02-04T04:08:58.316Z,1009.65
2023-02-04T04:09:58.343Z,1009.66
2023-02-04T04:10:58.267Z,1009.67
2023-02-04T04:11:58.249Z,1009.67
2023-02-04T04:12:58.213Z,1009.64
2023-02-04T04:13:58.186Z,1009.69
2023-02-04T04:14:58.154Z,1009.64
2023-02-04T04:15:58.206Z,1009.63
2023-02-04T04:16:58.111Z,1009.62
2023-02-04T04:17:58.080Z,1009.59
2023-02-04T04:18:58.052Z,1009.66
2023-02-04T04:19:58.037Z,1009.64
2023-02-04T04:20:58.008Z,1009.70
2023-02-04T04:21:57.982Z,1009.70
2023-02-04T04:22:58.038Z,1009.72
2023-02-04T04:23:57.933Z,1009.75
2023-02-04T04:24:57.904Z,1009.71
2023-02-04T04:25:57.901Z,1009.72
2023-02-04T04:26:57.876Z,1009.68
2023-02-04T04:27:57.892Z,1009.68
2023-02-04T04:28:57.806Z,1009.70
2023-02-04T04:29:57.811Z,1009.68
2023-02-04T04:30:57.794Z,1009.70
2023-02-04T04:31:57.779Z,1009.71
2023-02-04T04:32:57.697Z,1009.73
2023-02-04T04:33:57.674Z,1009.72
2023-02-04T04:34:57.653Z,1009.73
2023-02-04T04:35:57.621Z,1009.74
2023-02-04T04:36:57.583Z,1009.81
2023-02-04T04:37:57.578Z,1009.77
2023-02-04T04:38:57.529Z,1009.81
2023-02-04T04:39:57.513Z,1009.85
2023-02-04T04:40:57.485Z,1009.86
2023-02-04T04:41:57.476Z,1009.90
2023-02-04T04:42:57.439Z,1009.88
2023-02-04T04:43:57.413Z,1009.90
2023-02-04T04:44:57.378Z,1009.89
2023-02-04T04:45:57.360Z,1009.90
2023-02-04T04:46:57.400Z,1009.87
2023-02-04T04:47:57.309Z,1009.85
2023-02-04T04:48:57.280Z,1009.90
2023-02-04T04:49:57.255Z,1009.85
2023-02-04T04:50:57.234Z,1009.89
2023-02-04T04:51:57.204Z,1009.86
2023-02-04T04:52:57.178Z,1009.89
2023-02-04T04:53:57.170Z,1009.93
2023-02-04T04:54:57.130Z,1009.90
2023-02-04T04:55:57.098Z,1009.91
2023-02-04T04:56:57.074Z,1009.93
2023-02-04T04:57:57.050Z,1009.91
2023-02-04T04:58:57.021Z,1009.94
2023-02-04T04:59:56.993Z,1009.90
2023-02-04T05:00:57.011Z,1009.87
2023-02-04T05:01:56.946Z,1009.84
2023-02-04T05:02:56.916Z,1009.84
2023-02-04T05:03:56.914Z,1009.84
2023-02-04T05:04:56.935Z,1009.82
2023-02-04T05:05:56.863Z,1009.76
2023-02-04T05:06:56.821Z,1009.76
2023-02-04T05:07:56.793Z,1009.80
2023-02-04T05:08:56.783Z,1009.77
2023-02-04T05:09:56.746Z,1009.77
2023-02-04T05:10:56.730Z,1009.78
2023-02-04T05:11:56.695Z,1009.80
2023-02-04T05:12:56.682Z,1009.84
2023-02-04T05:13:56.654Z,1009.81
2023-02-04T05:14:56.621Z,1009.82
2023-02-04T05:15:56.650Z,1009.83
2023-02-04T05:16:56.566Z,1009.84
2023-02-04T05:17:56.545Z,1009.91
2023-02-04T05:18:56.519Z,1009.95
2023-02-04T05:19:56.487Z,1009.92
2023-02-04T05:20:56.470Z,1009.93
2023-02-04T05:21:56.432Z,1010.01
2023-02-04T05:22:56.412Z,1010.01
2023-02-04T05:23:56.391Z,1010.06
2023-02-04T05:24:56.365Z,1010.11
2023-02-04T05:25:56.332Z,1010.13
2023-02-04T05:26:56.307Z,1010.10
2023-02-04T05:27:56.310Z,1010.11
2023-02-04T05:28:56.268Z,1010.10
2023-02-04T05:29:56.231Z,1010.11
2023-02-04T05:30:56.268Z,1010.11
2023-02-04T05:31:56.244Z,1010.10
2023-02-04T05:32:56.157Z,1010.09
2023-02-04T05:33:56.126Z,1010.09
2023-02-04T05:34:56.110Z,1010.07
2023-02-04T05:35:56.078Z,1010.09
2023-02-04T05:36:56.055Z,1010.09
2023-02-04T05:37:56.019Z,1010.09
2023-02-04T05:38:55.997Z,1010.11
2023-02-04T05:39:55.967Z,1010.09
2023-02-04T05:40:55.945Z,1010.06
2023-02-04T05:41:55.910Z,1010.03
2023-02-04T05:42:55.892Z,1010.07
2023-02-04T05:43:55.866Z,1010.08
2023-02-04T05:44:55.841Z,1010.10
2023-02-04T05:45:55.868Z,1010.09
2023-02-04T05:46:55.790Z,1010.12
2023-02-04T05:47:55.768Z,1010.15
2023-02-04T05:48:55.733Z,1010.12
2023-02-04T05:49:55.708Z,1010.15
2023-02-04T05:50:55.686Z,1010.12
2023-02-04T05:51:55.657Z,1010.16
2023-02-04T05:52:55.636Z,1010.17
2023-02-04T05:53:55.602Z,1010.18
2023-02-04T05:54:55.604Z,1010.20
2023-02-04T05:55:55.558Z,1010.22
2023-02-04T05:56:55.563Z,1010.23
2023-02-04T05:57:55.536Z,1010.20
2023-02-04T05:58:55.489Z,1010.20
2023-02-04T05:59:55.457Z,1010.16
2023-02-04T06:00:55.432Z,1010.14
2023-02-04T06:01:55.396Z,1010.15
2023-02-04T06:02:55.387Z,1010.19
2023-02-04T06:03:55.367Z,1010.19
2023-02-04T06:04:55.339Z,1010.18
2023-02-04T06:05:55.300Z,1010.18
2023-02-04T06:06:55.260Z,1010.19
2023-02-04T06:07:55.243Z,1010.26
2023-02-04T06:08:55.221Z,1010.21
2023-02-04T06:09:55.183Z,1010.25
2023-02-04T06:10:55.157Z,1010.20
2023-02-04T06:11:55.133Z,1010.21
2023-02-04T06:12:55.106Z,1010.20
2023-02-04T06:13:55.093Z,1010.23
2023-02-04T06:14:55.057Z,1010.20
2023-02-04T06:15:55.032Z,1010.16
2023-02-04T06:16:55.046Z,1010.17
2023-02-04T06:17:54.975Z,1010.18
2023-02-04T06:18:54.951Z,1010.20
2023-02-04T06:19:54.930Z,1010.19
2023-02-04T06:20:54.903Z,1010.17
2023-02-04T06:21:54.877Z,1010.22
2023-02-04T06:22:54.854Z,1010.23
2023-02-04T06:23:54.817Z,1010.26
2023-02-04T06:24:54.815Z,1010.32
2023-02-04T06:25:54.767Z,1010.36
2023-02-04T06:26:54.735Z,1010.39
2023-02-04T06:27:54.765Z,1010.44
2023-02-04T06:28:54.694Z,1010.47
2023-02-04T06:29:54.688Z,1010.44
2023-02-04T06:30:54.708Z,1010.45
2023-02-04T06:31:54.698Z,1010.43
2023-02-04T06:32:54.588Z,1010.44
2023-02-04T06:33:54.549Z,1010.45
2023-02-04T06:34:54.533Z,1010.55
2023-02-04T06:35:54.523Z,1010.54
2023-02-04T06:36:54.501Z,1010.54
2023-02-04T06:37:54.443Z,1010.58
2023-02-04T06:38:54.446Z,1010.57
2023-02-04T06:39:54.408Z,1010.58
2023-02-04T06:40:54.388Z,1010.58
2023-02-04T06:41:54.420Z,1010.58
2023-02-04T06:42:54.331Z,1010.60
2023-02-04T06:43:54.300Z,1010.60
2023-02-04T06:44:54.278Z,1010.62
2023-02-04T06:45:54.262Z,1010.60
2023-02-04T06:46:54.218Z,1010.60
2023-02-04T06:47:54.184Z,1010.62
2023-02-04T06:48:54.166Z,1010.59
2023-02-04T06:49:54.146Z,1010.58
2023-02-04T06:50:54.113Z,1010.57
2023-02-04T06:51:54.086Z,1010.65
2023-02-04T06:52:54.059Z,1010.64
2023-02-04T06:53:54.029Z,1010.65
2023-02-04T06:54:54.009Z,1010.74
2023-02-04T06:55:53.972Z,1010.72
2023-02-04T06:56:53.963Z,1010.73
2023-02-04T06:57:53.925Z,1010.70
2023-02-04T06:58:53.949Z,1010.71
2023-02-04T06:59:53.879Z,1010.71
2023-02-04T07:00:53.854Z,1010.70
2023-02-04T07:01:53.821Z,1010.68
2023-02-04T07:02:53.864Z,1010.70
2023-02-04T07:03:53.772Z,1010.71
2023-02-04T07:04:53.744Z,1010.79
2023-02-04T07:05:53.728Z,1010.76
2023-02-04T07:06:53.699Z,1010.81
2023-02-04T07:07:53.696Z,1010.82
2023-02-04T07:08:53.646Z,1010.83
2023-02-04T07:09:53.610Z,1010.82
2023-02-04T07:10:53.591Z,1010.85
2023-02-04T07:11:53.561Z,1010.89
2023-02-04T07:12:53.557Z,1010.92
2023-02-04T07:13:53.512Z,1010.98
2023-02-04T07:14:53.483Z,1011.03
2023-02-04T07:15:53.586Z,1011.05
2023-02-04T07:16:53.449Z,1011.07
2023-02-04T07:17:53.396Z,1011.10
2023-02-04T07:18:53.382Z,1011.12
2023-02-04T07:19:53.345Z,1011.09
2023-02-04T07:20:53.328Z,1011.12
2023-02-04T07:21:53.293Z,1011.15
2023-02-04T07:22:53.271Z,1011.17
2023-02-04T07:23:53.250Z,1011.19
2023-02-04T07:24:53.224Z,1011.20
2023-02-04T07:25:53.199Z,1011.26
2023-02-04T07:26:53.448Z,1011.33
2023-02-04T07:27:53.153Z,1011.37
2023-02-04T07:28:53.146Z,1011.34
2023-02-04T07:29:53.102Z,1011.35
2023-02-04T07:30:53.251Z,1011.34
2023-02-04T07:31:53.342Z,1011.38
2023-02-04T07:32:53.023Z,1011.35
2023-02-04T07:33:52.983Z,1011.40
2023-02-04T07:34:52.963Z,1011.35
2023-02-04T07:35:52.953Z,1011.39
2023-02-04T07:36:52.992Z,1011.39
2023-02-04T07:37:52.883Z,1011.40
2023-02-04T07:38:52.852Z,1011.42
2023-02-04T07:39:52.829Z,1011.45
2023-02-04T07:40:52.800Z,1011.50
2023-02-04T07:41:52.769Z,1011.52
2023-02-04T07:42:52.748Z,1011.52
2023-02-04T07:43:52.711Z,1011.54
2023-02-04T07:44:52.711Z,1011.57
2023-02-04T07:45:52.660Z,1011.56
2023-02-04T07:46:52.651Z,1011.61
2023-02-04T07:47:52.617Z,1011.61
2023-02-04T07:48:52.587Z,1011.64
2023-02-04T07:49:52.556Z,1011.66
2023-02-04T07:50:52.544Z,1011.64
2023-02-04T07:51:52.506Z,1011.66
2023-02-04T07:52:52.484Z,1011.72
2023-02-04T07:53:52.475Z,1011.76
2023-02-04T07:54:52.429Z,1011.77
2023-02-04T07:55:52.398Z,1011.78
2023-02-04T07:56:52.379Z,1011.79
2023-02-04T07:57:52.357Z,1011.80
2023-02-04T07:58:52.332Z,1011.81
2023-02-04T07:59:52.292Z,1011.82
2023-02-04T08:00:52.283Z,1011.82
2023-02-04T08:01:52.289Z,1011.83
2023-02-04T08:02:52.277Z,1011.84
2023-02-04T08:03:52.217Z,1011.84
2023-02-04T08:04:52.166Z,1011.85
2023-02-04T08:05:52.136Z,1011.80
2023-02-04T08:06:52.119Z,1011.81
2023-02-04T08:07:52.092Z,1011.87
2023-02-04T08:08:52.066Z,1011.86
2023-02-04T08:09:52.037Z,1011.91
2023-02-04T08:10:52.013Z,1011.88
2023-02-04T08:11:51.986Z,1011.88
2023-02-04T08:12:51.962Z,1011.90
2023-02-04T08:13:51.930Z,1011.90
2023-02-04T08:14:51.905Z,1011.86
2023-02-04T08:15:51.908Z,1011.89
2023-02-04T08:16:51.867Z,1011.89
2023-02-04T08:17:51.826Z,1011.89
2023-02-04T08:18:51.804Z,1011.90
2023-02-04T08:19:51.776Z,1011.92
2023-02-04T08:20:51.755Z,1012.01
2023-02-04T08:21:52.785Z,1012.02
2023-02-04T08:22:51.707Z,1012.02
2023-02-04T08:23:51.673Z,1012.07
2023-02-04T08:24:51.740Z,1012.05
2023-02-04T08:25:51.625Z,1012.07
2023-02-04T08:26:51.895Z,1012.12
2023-02-04T08:27:51.631Z,1012.15
2023-02-04T08:28:51.544Z,1012.13
2023-02-04T08:29:51.527Z,1012.16
2023-02-04T08:30:51.554Z,1012.16
2023-02-04T08:31:51.560Z,1012.16
2023-02-04T08:32:51.444Z,1012.19
2023-02-04T08:33:51.409Z,1012.19
2023-02-04T08:34:51.390Z,1012.20
2023-02-04T08:35:51.360Z,1012.21
2023-02-04T08:36:51.340Z,1012.24
2023-02-04T08:37:51.307Z,1012.22
2023-02-04T08:38:51.309Z,1012.29
2023-02-04T08:39:51.254Z,1012.35
2023-02-04T08:40:51.234Z,1012.35
2023-02-04T08:41:51.201Z,1012.38
2023-02-04T08:42:51.184Z,1012.47
2023-02-04T08:43:51.153Z,1012.47
2023-02-04T08:44:51.139Z,1012.50
2023-02-04T08:45:51.118Z,1012.54
2023-02-04T08:46:51.135Z,1012.54
2023-02-04T08:47:51.054Z,1012.56
2023-02-04T08:48:51.059Z,1012.55
2023-02-04T08:49:51.011Z,1012.57
2023-02-04T08:50:50.990Z,1012.58
2023-02-04T08:51:50.984Z,1012.55
2023-02-04T08:52:50.949Z,1012.59
2023-02-04T08:53:50.918Z,1012.57
2023-02-04T08:54:50.902Z,1012.63
2023-02-04T08:55:50.873Z,1012.62
2023-02-04T08:56:50.850Z,1012.63
2023-02-04T08:57:50.821Z,1012.62
2023-02-04T08:58:50.802Z,1012.65
2023-02-04T08:59:50.769Z,1012.68
2023-02-04T09:00:50.841Z,1012.73
2023-02-04T09:01:51.245Z,1012.71
2023-02-04T09:02:50.703Z,1012.73
2023-02-04T09:03:50.682Z,1012.76
2023-02-04T09:04:50.653Z,1012.78
2023-02-04T09:05:50.621Z,1012.80
2023-02-04T09:06:50.603Z,1012.83
2023-02-04T09:07:50.587Z,1012.82
2023-02-04T09:08:50.553Z,1012.84
2023-02-04T09:09:50.525Z,1012.86
2023-02-04T09:10:50.503Z,1012.87
2023-02-04T09:11:50.494Z,1012.88
2023-02-04T09:12:50.460Z,1012.81
2023-02-04T09:13:50.433Z,1012.85
2023-02-04T09:14:50.411Z,1012.93
2023-02-04T09:15:50.418Z,1012.87
2023-02-04T09:16:50.372Z,1012.91
2023-02-04T09:17:50.334Z,1012.90
2023-02-04T09:18:50.308Z,1012.91
2023-02-04T09:19:50.286Z,1012.88
2023-02-04T09:20:50.265Z,1012.89
2023-02-04T09:21:50.233Z,1012.92
2023-02-04T09:22:50.237Z,1012.95
2023-02-04T09:23:50.217Z,1012.94
2023-02-04T09:24:50.170Z,1012.94
2023-02-04T09:25:50.140Z,1012.94
2023-02-04T09:26:50.110Z,1012.92
2023-02-04T09:27:50.185Z,1012.92
2023-02-04T09:28:50.067Z,1012.87
2023-02-04T09:29:50.063Z,1012.89
2023-02-04T09:30:50.093Z,1012.86
2023-02-04T09:31:50.110Z,1012.90
2023-02-04T09:32:49.982Z,1012.91
2023-02-04T09:33:49.953Z,1012.94
2023-02-04T09:34:49.968Z,1012.93
2023-02-04T09:35:49.895Z,1012.95
2023-02-04T09:36:49.868Z,1012.98
2023-02-04T09:37:49.851Z,1013.00
2023-02-04T09:38:49.819Z,1013.00
2023-02-04T09:39:49.825Z,1013.01
2023-02-04T09:40:49.777Z,1013.03
2023-02-04T09:41:49.767Z,1013.10
2023-02-04T09:42:49.749Z,1013.08
2023-02-04T09:43:49.704Z,1013.11
2023-02-04T09:44:49.684Z,1013.12
2023-02-04T09:45:49.718Z,1013.17
2023-02-04T09:46:49.632Z,1013.19
2023-02-04T09:47:49.610Z,1013.18
2023-02-04T09:48:49.596Z,1013.19
2023-02-04T09:49:49.580Z,1013.19
2023-02-04T09:50:49.541Z,1013.23
2023-02-04T09:51:49.521Z,1013.21
2023-02-04T09:52:49.486Z,1013.23
2023-02-04T09:53:49.458Z,1013.25
2023-02-04T09:54:49.461Z,1013.31
2023-02-04T09:55:49.429Z,1013.29
2023-02-04T09:56:49.390Z,1013.31
2023-02-04T09:57:49.359Z,1013.35
2023-02-04T09:58:49.340Z,1013.33
2023-02-04T09:59:49.309Z,1013.35
2023-02-04T10:00:49.348Z,1013.36
2023-02-04T10:01:49.259Z,1013.40
2023-02-04T10:02:49.229Z,1013.41
2023-02-04T10:03:49.321Z,1013.44
2023-02-04T10:04:49.182Z,1013.41
2023-02-04T10:05:49.184Z,1013.36
2023-02-04T10:06:49.131Z,1013.36
2023-02-04T10:07:49.114Z,1013.34
2023-02-04T10:08:49.094Z,1013.36
2023-02-04T10:09:49.062Z,1013.41
2023-02-04T10:10:49.057Z,1013.39
2023-02-04T10:11:49.025Z,1013.39
2023-02-04T10:12:49.015Z,1013.38
2023-02-04T10:13:48.972Z,1013.36
2023-02-04T10:14:48.935Z,1013.35
2023-02-04T10:15:48.944Z,1013.39
2023-02-04T10:16:48.941Z,1013.38
2023-02-04T10:17:48.873Z,1013.45
2023-02-04T10:18:48.867Z,1013.44
2023-02-04T10:19:48.827Z,1013.48
2023-02-04T10:20:48.802Z,1013.47
2023-02-04T10:21:48.790Z,1013.50
2023-02-04T10:22:50.280Z,1013.47
2023-02-04T10:23:48.734Z,1013.47
2023-02-04T10:24:48.706Z,1013.51
2023-02-04T10:25:48.684Z,1013.56
2023-02-04T10:26:48.659Z,1013.54
2023-02-04T10:27:48.674Z,1013.51
2023-02-04T10:28:48.618Z,1013.51
2023-02-04T10:29:48.607Z,1013.52
2023-02-04T10:30:48.689Z,1013.50
2023-02-04T10:31:48.698Z,1013.51
2023-02-04T10:32:48.534Z,1013.51
2023-02-04T10:33:48.541Z,1013.55
2023-02-04T10:34:48.506Z,1013.61
2023-02-04T10:35:48.481Z,1013.66
2023-02-04T10:36:48.481Z,1013.65
2023-02-04T10:37:48.460Z,1013.62
2023-02-04T10:38:48.403Z,1013.65
2023-02-04T10:39:48.379Z,1013.63
2023-02-04T10:40:48.349Z,1013.61
2023-02-04T10:41:49.817Z,1013.59
2023-02-04T10:42:48.307Z,1013.58
2023-02-04T10:43:48.292Z,1013.57
2023-02-04T10:44:48.279Z,1013.63
2023-02-04T10:45:48.266Z,1013.57
2023-02-04T10:46:48.230Z,1013.59
2023-02-04T10:47:48.194Z,1013.58
2023-02-04T10:48:48.214Z,1013.59
2023-02-04T10:49:48.162Z,1013.62
2023-02-04T10:50:48.159Z,1013.60
2023-02-04T10:51:48.116Z,1013.60
2023-02-04T10:52:48.082Z,1013.63
2023-02-04T10:53:48.064Z,1013.62
2023-02-04T10:54:48.035Z,1013.61
2023-02-04T10:55:48.036Z,1013.59
2023-02-04T10:56:48.009Z,1013.63
2023-02-04T10:57:47.982Z,1013.58
2023-02-04T10:58:47.939Z,1013.59
2023-02-04T10:59:47.955Z,1013.55
2023-02-04T11:00:47.897Z,1013.57
2023-02-04T11:01:47.883Z,1013.57
2023-02-04T11:02:47.861Z,1013.56
2023-02-04T11:03:48.925Z,1013.54
2023-02-04T11:04:47.812Z,1013.56
2023-02-04T11:05:47.791Z,1013.54
2023-02-04T11:06:47.765Z,1013.55
2023-02-04T11:07:47.751Z,1013.49
2023-02-04T11:08:47.724Z,1013.54
2023-02-04T11:09:48.739Z,1013.52
2023-02-04T11:10:47.714Z,1013.54
2023-02-04T11:11:47.666Z,1013.52
2023-02-04T11:12:47.641Z,1013.56
2023-02-04T11:13:47.618Z,1013.56
2023-02-04T11:14:47.595Z,1013.53
2023-02-04T11:15:50.401Z,1013.54
2023-02-04T11:16:47.550Z,1013.53
2023-02-04T11:17:47.582Z,1013.60
2023-02-04T11:18:47.513Z,1013.58
2023-02-04T11:19:47.485Z,1013.58
2023-02-04T11:20:47.476Z,1013.61
2023-02-04T11:21:47.450Z,1013.58
2023-02-04T11:22:47.439Z,1013.61
2023-02-04T11:23:47.407Z,1013.61
2023-02-04T11:24:47.380Z,1013.61
2023-02-04T11:25:47.362Z,1013.63
2023-02-04T11:26:47.332Z,1013.62
2023-02-04T11:27:47.374Z,1013.68
2023-02-04T11:28:47.307Z,1013.66
2023-02-04T11:29:47.281Z,1013.63
2023-02-04T11:30:47.300Z,1013.66
2023-02-04T11:31:47.405Z,1013.69
2023-02-04T11:32:47.219Z,1013.66
2023-02-04T11:33:47.221Z,1013.71
2023-02-04T11:34:47.167Z,1013.70
2023-02-04T11:35:47.187Z,1013.71
2023-02-04T11:36:47.126Z,1013.66
2023-02-04T11:37:47.118Z,1013.64
2023-02-04T11:38:47.109Z,1013.68
2023-02-04T11:39:47.076Z,1013.70
2023-02-04T11:40:47.050Z,1013.67
2023-02-04T11:41:47.039Z,1013.69
2023-02-04T11:42:46.997Z,1013.70
2023-02-04T11:43:46.985Z,1013.71
2023-02-04T11:44:46.978Z,1013.71
2023-02-04T11:45:46.993Z,1013.77
2023-02-04T11:46:46.941Z,1013.73
2023-02-04T11:47:46.897Z,1013.76
2023-02-04T11:48:46.872Z,1013.81
2023-02-04T11:49:46.861Z,1013.78
2023-02-04T11:50:46.834Z,1013.72
2023-02-04T11:51:46.817Z,1013.72
2023-02-04T11:52:46.803Z,1013.75
2023-02-04T11:53:46.806Z,1013.70
2023-02-04T11:54:46.744Z,1013.72
2023-02-04T11:55:47.689Z,1013.68
2023-02-04T11:56:46.710Z,1013.66
2023-02-04T11:57:46.702Z,1013.64
2023-02-04T11:58:46.666Z,1013.65
2023-02-04T11:59:46.654Z,1013.68
2023-02-04T12:00:46.685Z,1013.64
2023-02-04T12:01:46.607Z,1013.67
2023-02-04T12:02:46.685Z,1013.65
2023-02-04T12:03:46.604Z,1013.65
2023-02-04T12:04:46.560Z,1013.69